Posse, Brazil
Current Conditions -  °F | °C
As of 6:00 PM on Tuesday 21 Oct 2014 (Local Time) from SBBR Reporting Station
Thunderstorm Thunderstorm  
Wind Chill: 86°   Ceiling: 3000
Heat Index: 86°   Visibility: 6mi
Dew Point: 59°   Wind: 22mph
Humidity: 40%   Direction: 90°E
Pressure: 29.94"   Gusts: NA
Location:  14.09°S, 46.37°W
Report Text: SBBR 212000Z 09019KT 9999 TS BKN030 FEW035CB 30/15 Q1014
Loading
Personal Weather Stations






























Interactive Weather Map
Tropical Storm Tracking
New forecast layout! Learn more

10-Day Weather Forecast

Advertisements
Track Severe Weather on mobile